Kodiak Airport
PADQ : rendu visible

Aérodrome :











RETROUVEZ-NOUS SUR...

 
LOGIN :

S'inscrire | Disclaimer

   EN    FR    IT 

 









Légende :    VFR   VFR Marginal   IFR   IFR Intensif   IFR Très Intensif
Visi : 
Plafond : 
>= 8 km
>= 3000ft
5 à 8 km
1000 à 3000 ft
1500m à 5 km
500 à 1000 ft
800 à 1500m
200 à 500 ft
< 800m
< 200 ft
Symboles :   Orages  Brouillard  Fortes neiges  Fortes précipitations  Vent > 20 kt






- Altitude de l'aérodrome : 78 ft
- Code IATA : ADQ


PADQ - Kodiak

DERNIER METAR :
  • 180259Z 09015KT 4SM -SN FEW014 BKN019 BKN026 01/M02 A2964 RMK AO2 SNB55 P0000 T00061022 $

METARs EXPIRÉS :
  • 180253Z 05015KT 9SM FEW014 SCT019 BKN026 01/M03 A2963 RMK AO2 PK WND 07032/0213 RAB16E25SNE38 SLP035 P0001 60002 T00061028 56008 $
  • 180239Z 06018KT 9SM SCT017 BKN026 OVC085 01/M03 A2964 RMK AO2 PK WND 07032/0213 RAB16E25SNE38 P0001 T00061028 $
  • 180225Z 07024KT 3SM -SN FEW015 BKN035 OVC085 01/M03 A2964 RMK AO2 PK WND 07032/0213 RAB16E25 P0001 T00061028 $
  • 180206Z 09013G29KT 5SM -SN FEW015 BKN022 OVC026 00/M03 A2964 RMK AO2 PK WND 08031/0156 P0001 T00001028 $
  • 180153Z 07018KT 5SM -SN FEW014 BKN023 OVC044 01/M02 A2964 RMK AO2 WSHFT 0135 SNE03B14E30B48 SLP037 P0000 T00111022 $
  • 180123Z 05019KT 5SM -SN FEW009 BKN050 OVC065 00/M03 A2965 RMK AO2 SNE03B14 P0000 T00001028 $
  • 180118Z 06018KT 2SM -SN FEW009 BKN029 OVC065 00/M03 A2965 RMK AO2 SNE03B14 P0000 T00001028 $
  • 180105Z 06016KT 7SM SCT016 BKN042 OVC065 00/M03 A2965 RMK AO2 SNE03 P0000 T00001028 $
  • 180053Z 06018G25KT 7SM -SN FEW007 BKN015 OVC029 00/M02 A2966 RMK AO2 PK WND 05032/0012 SNB15 SLP043 P0001 T00001022 $
  • 180038Z 04020KT 3SM -SN BR FEW007 BKN013 OVC023 M01/M03 A2966 RMK AO2 PK WND 05032/0012 SNB15 P0001 T10061028 $
  • 180029Z 05019G29KT 1/4SM +SN BKN009 BKN025 OVC110 M01/M03 A2967 RMK AO2 PK WND 05032/0012 SNB15 P0000 T10061033 $

TAF PADQ
Valide du 18 à 00h jusqu'au 19 à 00h UTC


172329Z 1800/1824 05012KT P6SM -SHSN SCT020 BKN035
TEMPO 1800/1804 05015G25KT 1 1/2SM -SHSN BKN020
FM180400 05015G25KT 4SM -SHSN BKN025
TEMPO 1804/1808 1SM -SHSN BKN010
FM181000 05025G35KT 1/2SM SN FZFG VV006
FM182000 07018G25KT 2SM -SN BR SCT008 BKN015



MET'MAP, la Météo Aéronautique d'un coup d'oeil ! - Copyright ORBIFLY Décembre 2007 - Disclaimer

ORBIFLY MET'MAP TEAM :

Programmation & Développement : Alexandra Zaïnal
Sur une idée originale de : Baudouin d'Aumeries
Assistance à la programmation : Marc-Olivier Méhu
Soutien technique & logistique : Manuel Goepfert

Contact : metmap@orbifly.com




SOURCES & CREDITS :

   NOAA       Earth
Advisory